Etusivu
METAR-TAF:

METAR-TAF

Lentoasemat :

Luni

Sarzana, Italia

Leveyspiiri: 44-05N, Pituuspiiri: 009-59E, korkeus merenpinnasta: 9 m

Tämänhetkinen sää

Tämä raportti tehtiin 1 tunti ja 1 minuuttia sitten, kello 10.55 UTC
Lämpötila 15°C
Kosteus 67%
Ilmanpaine 998 hPa
Näkyvyys 10 km tai enemmän
ei pilviä alle 1500 m:ssä eikä cumulonimbus-pilviä

METAR: LIQW 121055Z /////KT CAVOK 15/09 Q0998

Aika: 12:56 (11:56 UTC)

Sääennuste

Tämä raportti tehtiin 56 minuuttia sitten, kello 11.00 UTC
Ennuste voimassa 12. päivästä klo 12 UTC - 12. päivään klo 21 UTC
Tuuli 12 kn pohjoisesta
Näkyvyys 10 km tai enemmän
Hajanaisia pilviä 4000 ft:n korkeudessa
Ajoittain
12. päivästä klo 14 UTC - 12. päivään klo 21 UTC
Näkyvyys: 4000 m
Hajanaisia pilviä 3000 ft:n korkeudessa
Hajonneita pilviä 4000 ft:n korkeudessa
sadetta, utua

TAF: LIQW 121100Z 1212/1221 01012KT 9999 SCT040 TEMPO 1214/1221 4000 RA BR SCT030 BKN040

Säähavainnot ja -ennusteet yli 4000 lentoasemalta (METAR- ja TAF-raportit).

Käytössä olevat sääasemat on merkitty karttaan keltaisilla ja punaisilla pisteillä.

Aseta hiiri pisteen päälle nähdäksesi sääaseman nimen.

Klikkaa sitten nähdäksesi säähavainnot ja -ennusteet.

Kartan vaihtaminen: klikkaa mustalla rastilla varustettuja vihreitä pisteitä, niin voit zoomata sisään; viivalla varustettua vihreää pistettä, niin voit zoomata ulos tai vihreitä nuolia, niin pääset viereisille kartoille.


METAR-TAF: